Miami International Airport
KMIA : now visible

Airfield :











YOU CAN JOIN US ON...

 
LOGIN :

Register | Disclaimer

   EN    FR    IT 

 









Legend :    VFR   Marginal VFR   IFR   Intensive IFR   Very Intensive IFR
Visi :
Ceiling :
>= 8 km
>= 3000ft
5 to 8 km
1000 to 3000 ft
1500m to 5 km
500 to 1000 ft
800 to 1500m
200 to 500 ft
< 800m
< 200 ft
Symbols :   Thunderstorms  Fog  Heavy snow  Heavy precipitations  Wind > 20 kt






- Airport Elevation : 8 ft
- IATA code : MIA


KMIA - Miami International

CURRENT METAR :
  • 241753Z 10013G23KT 10SM SCT035 BKN250 31/21 A3004 RMK AO2 SLP172 T03060211 10306 20272 58006 $

EXPIRED METARs :
  • 241653Z 14011G19KT 10SM SCT033 BKN250 30/22 A3005 RMK AO2 SLP176 T03000217 $
  • 241553Z 11014KT 10SM BKN032 BKN045 BKN250 29/22 A3006 RMK AO2 SLP179 T02940222 $

TAF KMIA
Valid from the 24 at 18:00 until the 26 at 00:00 UTC


241734Z 2418/2524 11012G21KT P6SM SCT030
FM242300 10010KT P6SM SCT050
FM251400 12012G21KT P6SM BKN250
FM252300 11012KT P6SM BKN250
KZMA FIR / North America



MET'MAP, your aeronautical weather chart ! - Copyright ORBIFLY December 2007 - Disclaimer

ORBIFLY MET'MAP TEAM :

Programming & Development : Alexandra Zaïnal
Original concept : Baudouin d'Aumeries
Technical & hardware support : Manuel Goepfert
Assistance : Marc-Olivier Méhu

Contact : metmap@orbifly.com




SOURCES & CREDITS :

   NOAA       Earth
Advisory